createdAt,value
2023-03-05T00:01:22.788Z,-1.53
2023-03-05T00:03:52.414Z,-1.50
2023-03-05T00:06:20.650Z,-1.44
2023-03-05T00:08:50.402Z,-1.42
2023-03-05T00:11:18.688Z,-1.42
2023-03-05T00:13:47.141Z,-1.53
2023-03-05T00:16:16.239Z,-1.49
2023-03-05T00:18:45.041Z,-1.57
2023-03-05T00:21:19.500Z,-1.47
2023-03-05T00:23:47.559Z,-1.57
2023-03-05T00:26:16.999Z,-1.57
2023-03-05T00:28:44.935Z,-1.57
2023-03-05T00:31:13.110Z,-1.66
2023-03-05T00:33:41.087Z,-1.73
2023-03-05T00:36:09.452Z,-1.62
2023-03-05T00:38:37.550Z,-1.80
2023-03-05T00:41:05.530Z,-1.78
2023-03-05T00:43:34.834Z,-1.70
2023-03-05T00:46:02.952Z,-1.66
2023-03-05T00:48:30.961Z,-1.74
2023-03-05T00:50:58.900Z,-1.78
2023-03-05T00:53:27.421Z,-1.85
2023-03-05T00:55:55.651Z,-1.84
2023-03-05T00:58:23.608Z,-1.71
2023-03-05T01:00:53.032Z,-1.78
2023-03-05T01:03:21.065Z,-1.88
2023-03-05T01:05:48.963Z,-1.84
2023-03-05T01:08:17.089Z,-1.84
2023-03-05T01:10:44.993Z,-1.79
2023-03-05T01:13:13.079Z,-1.87
2023-03-05T01:15:41.114Z,-1.78
2023-03-05T01:18:10.485Z,-1.89
2023-03-05T01:20:38.603Z,-1.93
2023-03-05T01:23:06.657Z,-1.92
2023-03-05T01:25:34.706Z,-2.02
2023-03-05T01:28:02.668Z,-2.00
2023-03-05T01:30:30.663Z,-2.09
2023-03-05T01:32:58.618Z,-2.10
2023-03-05T01:35:28.004Z,-2.05
2023-03-05T01:37:56.081Z,-2.11
2023-03-05T01:40:26.328Z,-2.27
2023-03-05T01:42:58.408Z,-2.26
2023-03-05T01:45:26.817Z,-2.31
2023-03-05T01:47:54.850Z,-2.53
2023-03-05T01:50:26.020Z,-2.46
2023-03-05T01:52:59.359Z,-2.53
2023-03-05T01:55:29.006Z,-2.54
2023-03-05T01:57:59.055Z,-2.57
2023-03-05T02:00:29.168Z,-2.61
2023-03-05T02:02:58.521Z,-2.55
2023-03-05T02:05:28.122Z,-2.56
2023-03-05T02:07:58.016Z,-2.59
2023-03-05T02:10:26.795Z,-2.57
2023-03-05T02:12:56.111Z,-2.57
2023-03-05T02:15:24.388Z,-2.58
2023-03-05T02:17:52.487Z,-2.68
2023-03-05T02:20:22.237Z,-2.57
2023-03-05T02:22:51.626Z,-2.62
2023-03-05T02:25:20.904Z,-2.53
2023-03-05T02:27:53.738Z,-2.54
2023-03-05T02:30:21.623Z,-2.51
2023-03-05T02:32:49.689Z,-2.49
2023-03-05T02:35:17.757Z,-2.70
2023-03-05T02:37:45.851Z,-2.81
2023-03-05T02:40:15.742Z,-2.68
2023-03-05T02:42:43.666Z,-2.78
2023-03-05T02:45:12.388Z,-2.77
2023-03-05T02:47:40.353Z,-2.82
2023-03-05T02:50:09.228Z,-2.72
2023-03-05T02:52:40.522Z,-2.78
2023-03-05T02:55:08.740Z,-2.82
2023-03-05T02:57:38.101Z,-2.77
2023-03-05T03:00:06.874Z,-2.89
2023-03-05T03:02:34.965Z,-2.96
2023-03-05T03:05:03.018Z,-2.88
2023-03-05T03:07:31.227Z,-2.92
2023-03-05T03:09:59.280Z,-2.87
2023-03-05T03:12:27.226Z,-2.84
2023-03-05T03:14:56.552Z,-2.87
2023-03-05T03:17:24.622Z,-2.81
2023-03-05T03:19:52.499Z,-2.81
2023-03-05T03:22:20.512Z,-2.81
2023-03-05T03:24:48.448Z,-2.75
2023-03-05T03:27:16.647Z,-2.68
2023-03-05T03:29:44.625Z,-2.64
2023-03-05T03:32:14.163Z,-2.56
2023-03-05T03:34:42.084Z,-2.63
2023-03-05T03:37:10.206Z,-2.61
2023-03-05T03:39:38.261Z,-2.59
2023-03-05T03:42:06.520Z,-2.58
2023-03-05T03:44:34.501Z,-2.40
2023-03-05T03:47:02.455Z,-2.49
2023-03-05T03:49:31.841Z,-2.44
2023-03-05T03:51:59.787Z,-2.53
2023-03-05T03:54:27.902Z,-2.45
2023-03-05T03:56:55.769Z,-2.36
2023-03-05T03:59:24.141Z,-2.48
2023-03-05T04:01:52.035Z,-2.41
2023-03-05T04:04:19.997Z,-2.43
2023-03-05T04:06:49.315Z,-2.38
2023-03-05T04:09:17.244Z,-2.37
2023-03-05T04:11:45.262Z,-2.33
2023-03-05T04:14:13.641Z,-2.34
2023-03-05T04:16:41.645Z,-2.37
2023-03-05T04:19:09.654Z,-2.38
2023-03-05T04:21:37.583Z,-2.37
2023-03-05T04:24:08.382Z,-2.39
2023-03-05T04:26:36.445Z,-2.28
2023-03-05T04:29:04.613Z,-2.32
2023-03-05T04:31:32.634Z,-2.50
2023-03-05T04:34:01.198Z,-2.35
2023-03-05T04:36:29.233Z,-2.46
2023-03-05T04:38:57.135Z,-2.37
2023-03-05T04:41:26.429Z,-2.28
2023-03-05T04:43:54.387Z,-2.47
2023-03-05T04:46:22.521Z,-2.30
2023-03-05T04:48:50.364Z,-2.23
2023-03-05T04:51:18.271Z,-2.16
2023-03-05T04:53:46.321Z,-2.17
2023-03-05T04:56:14.786Z,-2.16
2023-03-05T04:58:44.347Z,-2.26
2023-03-05T05:01:12.323Z,-2.12
2023-03-05T05:03:40.275Z,-2.10
2023-03-05T05:06:08.604Z,-2.07
2023-03-05T05:08:37.124Z,-2.22
2023-03-05T05:11:06.560Z,-2.08
2023-03-05T05:13:34.750Z,-2.07
2023-03-05T05:16:07.125Z,-2.00
2023-03-05T05:18:35.155Z,-1.97
2023-03-05T05:21:03.117Z,-2.02
2023-03-05T05:23:31.097Z,-1.90
2023-03-05T05:25:59.929Z,-1.74
2023-03-05T05:28:27.858Z,-1.72
2023-03-05T05:30:56.075Z,-1.57
2023-03-05T05:33:26.146Z,-1.61
2023-03-05T05:35:54.112Z,-1.70
2023-03-05T05:38:22.186Z,-1.78
2023-03-05T05:40:50.240Z,-1.59
2023-03-05T05:43:18.105Z,-1.55
2023-03-05T05:45:46.118Z,-1.49
2023-03-05T05:48:14.213Z,-1.25
2023-03-05T05:50:43.617Z,-1.14
2023-03-05T05:53:11.529Z,-0.90
2023-03-05T05:55:41.563Z,-0.66
2023-03-05T05:58:09.573Z,-0.90
2023-03-05T06:00:37.652Z,-0.86
2023-03-05T06:03:05.741Z,-0.96
2023-03-05T06:05:33.768Z,-0.94
2023-03-05T06:08:03.233Z,-1.14
2023-03-05T06:10:31.312Z,-1.12
2023-03-05T06:12:59.431Z,-1.11
2023-03-05T06:15:27.399Z,-1.10
2023-03-05T06:17:55.447Z,-1.31
2023-03-05T06:20:23.444Z,-1.48
2023-03-05T06:22:51.679Z,-1.42
2023-03-05T06:25:21.244Z,-1.38
2023-03-05T06:27:49.285Z,-1.20
2023-03-05T06:30:17.592Z,-1.10
2023-03-05T06:32:45.453Z,-1.13
2023-03-05T06:35:14.268Z,-1.05
2023-03-05T06:37:42.319Z,-1.23
2023-03-05T06:40:11.323Z,-1.39
2023-03-05T06:42:42.112Z,-1.53
2023-03-05T06:45:11.051Z,-1.30
2023-03-05T06:47:39.022Z,-1.29
2023-03-05T06:50:07.595Z,-1.34
2023-03-05T06:52:35.598Z,-1.25
2023-03-05T06:55:03.552Z,-1.17
2023-03-05T06:57:31.601Z,-1.30
2023-03-05T07:00:01.177Z,-1.21
2023-03-05T07:02:29.317Z,-1.22
2023-03-05T07:04:57.314Z,-1.15
2023-03-05T07:07:25.295Z,-1.08
2023-03-05T07:09:53.904Z,-0.89
2023-03-05T07:12:21.921Z,-0.83
2023-03-05T07:14:49.934Z,-0.80
2023-03-05T07:17:19.808Z,-0.88
2023-03-05T07:19:47.801Z,-0.89
2023-03-05T07:22:16.477Z,-1.01
2023-03-05T07:24:44.499Z,-1.15
2023-03-05T07:27:12.569Z,-1.05
2023-03-05T07:29:40.558Z,-0.94
2023-03-05T07:32:08.703Z,-0.80
2023-03-05T07:34:39.959Z,-1.01
2023-03-05T07:37:07.849Z,-0.97
2023-03-05T07:39:35.892Z,-0.90
2023-03-05T07:42:03.975Z,-0.83
2023-03-05T07:44:32.070Z,-0.89
2023-03-05T07:47:00.259Z,-0.98
2023-03-05T07:49:28.299Z,-1.01
2023-03-05T07:51:58.023Z,-1.06
2023-03-05T07:54:26.093Z,-0.96
2023-03-05T07:56:56.791Z,-0.85
2023-03-05T07:59:24.810Z,-0.73
2023-03-05T08:01:52.645Z,-0.64
2023-03-05T08:04:20.811Z,-0.73
2023-03-05T08:06:50.085Z,-0.68
2023-03-05T08:09:19.595Z,-0.81
2023-03-05T08:11:47.543Z,-0.88
2023-03-05T08:14:15.637Z,-0.79
2023-03-05T08:16:44.523Z,-0.57
2023-03-05T08:19:13.440Z,-0.57
2023-03-05T08:21:41.305Z,-0.47
2023-03-05T08:24:10.308Z,-0.56
2023-03-05T08:26:39.859Z,-0.57
2023-03-05T08:29:08.209Z,-0.68
2023-03-05T08:31:36.738Z,-0.68
2023-03-05T08:34:05.856Z,-0.59
2023-03-05T08:36:33.903Z,-0.54
2023-03-05T08:39:02.017Z,-0.39
2023-03-05T08:41:30.331Z,-0.44
2023-03-05T08:43:59.676Z,-0.31
2023-03-05T08:46:27.735Z,-0.13
2023-03-05T08:48:55.796Z,-0.17
2023-03-05T08:51:25.779Z,-0.16
2023-03-05T08:53:54.659Z,-0.18
2023-03-05T08:56:22.866Z,-0.25
2023-03-05T08:58:52.581Z,-0.18
2023-03-05T09:01:22.806Z,-0.05
2023-03-05T09:03:51.287Z,-0.23
2023-03-05T09:06:19.303Z,-0.13
2023-03-05T09:08:47.447Z,-0.21
2023-03-05T09:11:15.604Z,-0.03
2023-03-05T09:13:43.982Z,-0.20
2023-03-05T09:16:17.452Z,-0.30
2023-03-05T09:18:46.948Z,-0.27
2023-03-05T09:21:16.510Z,-0.24
2023-03-05T09:23:44.738Z,-0.39
2023-03-05T09:26:14.007Z,-0.24
2023-03-05T09:28:42.029Z,-0.14
2023-03-05T09:31:10.428Z,-0.29
2023-03-05T09:33:38.682Z,-0.25
2023-03-05T09:36:17.918Z,-0.24
2023-03-05T09:38:46.119Z,-0.14
2023-03-05T09:41:17.424Z,-0.07
2023-03-05T09:43:50.767Z,-0.08
2023-03-05T09:46:22.650Z,-0.09
2023-03-05T09:48:52.035Z,-0.16
2023-03-05T09:51:25.986Z,-0.23
2023-03-05T09:54:02.649Z,-0.29
2023-03-05T09:56:32.361Z,-0.14
2023-03-05T09:59:03.588Z,-0.17
2023-03-05T10:01:38.871Z,-0.07
2023-03-05T10:04:11.558Z,-0.02
2023-03-05T10:06:48.489Z,-0.12
2023-03-05T10:09:21.106Z,-0.27
2023-03-05T10:11:52.242Z,-0.28
2023-03-05T10:14:25.078Z,-0.26
2023-03-05T10:17:24.030Z,-0.12
2023-03-05T10:19:58.854Z,-0.31
2023-03-05T10:22:29.870Z,-0.27
2023-03-05T10:25:05.214Z,-0.29
2023-03-05T10:27:43.497Z,-0.42
2023-03-05T10:30:22.241Z,-0.60
2023-03-05T10:32:55.119Z,-0.57
2023-03-05T10:35:41.047Z,-0.59
2023-03-05T10:38:29.142Z,-0.64
2023-03-05T10:40:57.267Z,-0.33
2023-03-05T10:43:28.898Z,-0.42
2023-03-05T10:45:58.810Z,-0.44
2023-03-05T10:48:29.544Z,-0.34
2023-03-05T10:51:00.694Z,-0.17
2023-03-05T10:53:33.767Z,-0.27
2023-03-05T10:56:03.156Z,-0.29
2023-03-05T10:58:31.382Z,-0.33
2023-03-05T11:01:00.496Z,-0.37
2023-03-05T11:03:46.646Z,-0.44
2023-03-05T11:06:15.403Z,-0.48
2023-03-05T11:08:44.937Z,-0.33
2023-03-05T11:11:14.263Z,-0.17
2023-03-05T11:13:51.234Z,-0.27
2023-03-05T11:16:21.139Z,0.02
2023-03-05T11:18:49.252Z,0.08
2023-03-05T11:21:24.016Z,0.01
2023-03-05T11:24:06.823Z,0.22
2023-03-05T11:26:35.070Z,0.22
2023-03-05T11:29:05.076Z,0.11
2023-03-05T11:31:34.194Z,0.18
2023-03-05T11:34:03.572Z,0.17
2023-03-05T11:36:32.446Z,0.21
2023-03-05T11:39:02.321Z,0.26
2023-03-05T11:41:34.155Z,0.28
2023-03-05T11:44:05.825Z,0.14
2023-03-05T11:46:42.391Z,0.18
2023-03-05T11:49:13.043Z,0.17
2023-03-05T11:51:43.014Z,0.04
2023-03-05T11:54:15.947Z,-0.03
2023-03-05T11:56:47.200Z,-0.06
2023-03-05T11:59:17.639Z,-0.19
2023-03-05T12:01:47.764Z,-0.33
2023-03-05T12:04:16.391Z,-0.25
2023-03-05T12:06:45.877Z,-0.12
2023-03-05T12:09:17.225Z,-0.45
2023-03-05T12:11:49.525Z,-0.36
2023-03-05T12:14:20.422Z,-0.38
2023-03-05T12:16:49.940Z,-0.43
2023-03-05T12:19:35.892Z,-0.37
2023-03-05T12:22:04.311Z,-0.61
2023-03-05T12:24:36.588Z,-0.69
2023-03-05T12:27:11.035Z,-0.69
2023-03-05T12:29:43.882Z,-0.64
2023-03-05T12:32:31.592Z,-0.56
2023-03-05T12:35:00.269Z,-0.62
2023-03-05T12:37:52.195Z,-0.68
2023-03-05T12:40:24.524Z,-0.71
2023-03-05T12:42:58.108Z,-0.69
2023-03-05T12:45:27.722Z,-0.51
2023-03-05T12:48:13.570Z,-0.49
2023-03-05T12:50:52.910Z,-0.69
2023-03-05T12:53:21.648Z,-0.64
2023-03-05T12:55:58.267Z,-0.60
2023-03-05T12:58:35.656Z,-0.62
2023-03-05T13:01:05.687Z,-0.63
2023-03-05T13:03:36.804Z,-0.87
2023-03-05T13:06:06.865Z,-0.80
2023-03-05T13:08:36.294Z,-0.79
2023-03-05T13:11:05.867Z,-0.72
2023-03-05T13:13:36.973Z,-0.63
2023-03-05T13:16:05.546Z,-0.83
2023-03-05T13:18:34.305Z,-0.87
2023-03-05T13:21:04.612Z,-0.66
2023-03-05T13:23:36.259Z,-0.69
2023-03-05T13:26:05.601Z,-0.79
2023-03-05T13:28:34.012Z,-0.66
2023-03-05T13:31:05.202Z,-0.57
2023-03-05T13:33:33.922Z,-0.57
2023-03-05T13:36:02.440Z,-0.54
2023-03-05T13:38:32.969Z,-0.70
2023-03-05T13:41:20.691Z,-0.75
2023-03-05T13:43:50.065Z,-0.95
2023-03-05T13:46:26.217Z,-0.78
2023-03-05T13:48:54.313Z,-0.59
2023-03-05T13:51:22.687Z,-0.68
2023-03-05T13:53:51.390Z,-0.58
2023-03-05T13:56:21.114Z,-0.61
2023-03-05T13:58:52.592Z,-0.84
2023-03-05T14:01:28.296Z,-1.04
2023-03-05T14:03:57.447Z,-1.11
2023-03-05T14:06:28.036Z,-1.10
2023-03-05T14:09:00.688Z,-1.03
2023-03-05T14:11:28.854Z,-1.06
2023-03-05T14:14:01.624Z,-1.19
2023-03-05T14:16:33.410Z,-1.05
2023-03-05T14:19:02.404Z,-1.06
2023-03-05T14:21:44.455Z,-1.08
2023-03-05T14:24:16.772Z,-1.42
2023-03-05T14:26:49.992Z,-1.19
2023-03-05T14:29:19.715Z,-1.11
2023-03-05T14:31:50.311Z,-1.18
2023-03-05T14:34:22.166Z,-1.14
2023-03-05T14:36:50.862Z,-1.34
2023-03-05T14:39:32.556Z,-1.32
2023-03-05T14:42:30.554Z,-1.32
2023-03-05T14:44:59.350Z,-1.28
2023-03-05T14:47:29.219Z,-1.33
2023-03-05T14:49:57.319Z,-1.33
2023-03-05T14:52:26.338Z,-1.30
2023-03-05T14:54:55.950Z,-1.52
2023-03-05T14:57:24.869Z,-1.49
2023-03-05T14:59:52.814Z,-1.57
2023-03-05T15:02:22.601Z,-1.69
2023-03-05T15:04:52.100Z,-1.67
2023-03-05T15:07:23.771Z,-1.63
2023-03-05T15:09:51.781Z,-1.61
2023-03-05T15:12:24.731Z,-1.61
2023-03-05T15:14:53.269Z,-1.59
2023-03-05T15:17:22.382Z,-1.80
2023-03-05T15:19:51.827Z,-1.87
2023-03-05T15:22:19.817Z,-1.91
2023-03-05T15:24:47.921Z,-1.90
2023-03-05T15:27:15.866Z,-1.80
2023-03-05T15:29:43.956Z,-1.87
2023-03-05T15:32:11.970Z,-1.94
2023-03-05T15:34:40.143Z,-1.89
2023-03-05T15:37:09.516Z,-1.82
2023-03-05T15:39:37.628Z,-1.87
2023-03-05T15:42:06.592Z,-1.75
2023-03-05T15:44:34.768Z,-1.68
2023-03-05T15:47:02.736Z,-1.61
2023-03-05T15:49:30.677Z,-1.57
2023-03-05T15:51:58.826Z,-1.62
2023-03-05T15:54:28.705Z,-1.51
2023-03-05T15:56:56.747Z,-1.64
2023-03-05T15:59:25.241Z,-1.83
2023-03-05T16:01:53.259Z,-1.89
2023-03-05T16:04:21.196Z,-2.04
2023-03-05T16:06:50.733Z,-2.05
2023-03-05T16:09:20.395Z,-2.06
2023-03-05T16:11:51.646Z,-2.18
2023-03-05T16:14:22.904Z,-2.10
2023-03-05T16:16:50.982Z,-2.09
2023-03-05T16:19:19.957Z,-1.97
2023-03-05T16:21:47.988Z,-1.91
2023-03-05T16:24:16.041Z,-1.92
2023-03-05T16:26:44.106Z,-1.82
2023-03-05T16:29:14.215Z,-1.70
2023-03-05T16:31:43.349Z,-1.67
2023-03-05T16:34:14.103Z,-1.67
2023-03-05T16:36:46.280Z,-1.70
2023-03-05T16:39:14.406Z,-1.74
2023-03-05T16:41:42.467Z,-1.81
2023-03-05T16:44:11.041Z,-1.91
2023-03-05T16:46:42.135Z,-2.01
2023-03-05T16:49:10.167Z,-2.22
2023-03-05T16:51:38.105Z,-2.16
2023-03-05T16:54:06.551Z,-2.13
2023-03-05T16:56:35.706Z,-2.10
2023-03-05T16:59:04.351Z,-2.07
2023-03-05T17:01:32.439Z,-2.03
2023-03-05T17:04:02.332Z,-1.97
2023-03-05T17:06:31.111Z,-1.88
2023-03-05T17:08:59.121Z,-1.82
2023-03-05T17:11:27.554Z,-1.87
2023-03-05T17:13:55.472Z,-1.84
2023-03-05T17:16:23.936Z,-1.81
2023-03-05T17:18:52.139Z,-1.81
2023-03-05T17:21:21.563Z,-1.70
2023-03-05T17:23:49.600Z,-1.66
2023-03-05T17:26:18.988Z,-1.58
2023-03-05T17:28:46.944Z,-1.51
2023-03-05T17:31:15.603Z,-1.42
2023-03-05T17:33:43.657Z,-1.41
2023-03-05T17:36:15.355Z,-1.36
2023-03-05T17:38:45.060Z,-1.29
2023-03-05T17:41:13.348Z,-1.23
2023-03-05T17:43:41.383Z,-1.18
2023-03-05T17:46:09.600Z,-1.15
2023-03-05T17:48:39.370Z,-1.17
2023-03-05T17:51:07.539Z,-1.13
2023-03-05T17:53:36.158Z,-1.10
2023-03-05T17:56:07.098Z,-1.05
2023-03-05T17:58:35.076Z,-1.00
2023-03-05T18:01:03.182Z,-0.94
2023-03-05T18:03:31.168Z,-0.89
2023-03-05T18:05:59.361Z,-0.84
2023-03-05T18:08:27.230Z,-0.80
2023-03-05T18:10:55.320Z,-0.73
2023-03-05T18:13:24.826Z,-0.69
2023-03-05T18:15:52.866Z,-0.65
2023-03-05T18:18:20.924Z,-0.63
2023-03-05T18:20:49.027Z,-0.62
2023-03-05T18:23:17.217Z,-0.64
2023-03-05T18:25:45.653Z,-0.65
2023-03-05T18:28:14.421Z,-0.63
2023-03-05T18:30:44.359Z,-0.62
2023-03-05T18:33:16.779Z,-0.69
2023-03-05T18:35:44.749Z,-0.73
2023-03-05T18:38:12.820Z,-0.77
2023-03-05T18:40:41.094Z,-0.85
2023-03-05T18:43:10.942Z,-0.91
2023-03-05T18:45:38.851Z,-1.02
2023-03-05T18:48:08.660Z,-1.08
2023-03-05T18:50:36.737Z,-1.14
2023-03-05T18:53:04.731Z,-1.21
2023-03-05T18:55:32.674Z,-1.34
2023-03-05T18:58:00.771Z,-1.45
2023-03-05T19:00:30.298Z,-1.56
2023-03-05T19:02:58.564Z,-1.58
2023-03-05T19:05:28.003Z,-1.64
2023-03-05T19:07:56.377Z,-1.65
2023-03-05T19:10:24.751Z,-1.75
2023-03-05T19:13:08.330Z,-1.76
2023-03-05T19:15:36.310Z,-1.84
2023-03-05T19:18:05.492Z,-1.94
2023-03-05T19:20:34.919Z,-2.04
2023-03-05T19:23:02.817Z,-2.10
2023-03-05T19:25:30.764Z,-2.13
2023-03-05T19:27:58.687Z,-2.14
2023-03-05T19:30:26.674Z,-2.12
2023-03-05T19:32:54.780Z,-2.05
2023-03-05T19:35:23.295Z,-1.96
2023-03-05T19:37:52.760Z,-1.85
2023-03-05T19:40:20.935Z,-1.77
2023-03-05T19:42:48.958Z,-1.73
2023-03-05T19:45:16.955Z,-1.61
2023-03-05T19:47:44.870Z,-1.51
2023-03-05T19:50:15.538Z,-1.46
2023-03-05T19:52:43.648Z,-1.38
2023-03-05T19:55:13.315Z,-1.38
2023-03-05T19:57:41.341Z,-1.36
2023-03-05T20:00:09.962Z,-1.35
2023-03-05T20:02:37.931Z,-1.34
2023-03-05T20:05:06.212Z,-1.28
2023-03-05T20:07:34.320Z,-1.27
2023-03-05T20:10:02.325Z,-1.25
2023-03-05T20:12:32.055Z,-1.21
2023-03-05T20:14:59.943Z,-1.15
2023-03-05T20:17:27.915Z,-1.10
2023-03-05T20:19:59.138Z,-1.04
2023-03-05T20:22:27.076Z,-1.02
2023-03-05T20:24:55.088Z,-1.01
2023-03-05T20:27:23.076Z,-1.00
2023-03-05T20:29:52.497Z,-0.95
2023-03-05T20:32:20.405Z,-0.96
2023-03-05T20:34:51.745Z,-0.98
2023-03-05T20:37:45.529Z,-0.98
2023-03-05T20:40:14.110Z,-1.02
2023-03-05T20:42:42.067Z,-1.10
2023-03-05T20:45:12.094Z,-1.18
2023-03-05T20:47:42.549Z,-1.32
2023-03-05T20:50:11.218Z,-1.41
2023-03-05T20:52:40.477Z,-1.42
2023-03-05T20:55:09.441Z,-1.40
2023-03-05T20:57:37.400Z,-1.44
2023-03-05T21:00:05.932Z,-1.36
2023-03-05T21:02:35.573Z,-1.33
2023-03-05T21:05:03.708Z,-1.34
2023-03-05T21:07:31.838Z,-1.34
2023-03-05T21:09:59.847Z,-1.32
2023-03-05T21:12:27.668Z,-1.26
2023-03-05T21:14:55.552Z,-1.20
2023-03-05T21:17:23.409Z,-1.16
2023-03-05T21:19:53.556Z,-1.16
2023-03-05T21:22:21.442Z,-1.11
2023-03-05T21:25:16.567Z,-1.11
2023-03-05T21:27:44.727Z,-1.26
2023-03-05T21:30:13.182Z,-1.23
2023-03-05T21:32:41.112Z,-1.20
2023-03-05T21:35:14.269Z,-1.23
2023-03-05T21:37:43.023Z,-1.30
2023-03-05T21:40:11.745Z,-1.30
2023-03-05T21:42:40.500Z,-1.28
2023-03-05T21:45:08.775Z,-1.45
2023-03-05T21:47:36.682Z,-1.34
2023-03-05T21:50:04.856Z,-1.35
2023-03-05T21:52:34.670Z,-1.30
2023-03-05T21:55:03.167Z,-1.34
2023-03-05T21:57:32.734Z,-1.41
2023-03-05T22:00:00.704Z,-1.34
2023-03-05T22:02:28.863Z,-1.38
2023-03-05T22:04:56.894Z,-1.39
2023-03-05T22:07:24.883Z,-1.29
2023-03-05T22:09:56.463Z,-1.35
2023-03-05T22:13:07.866Z,-1.41
2023-03-05T22:15:41.766Z,-1.34
2023-03-05T22:18:09.787Z,-1.32
2023-03-05T22:20:37.679Z,-1.33
2023-03-05T22:23:05.734Z,-1.26
2023-03-05T22:25:35.364Z,-1.19
2023-03-05T22:30:50.134Z,-1.26
2023-03-05T22:33:18.465Z,-1.22
2023-03-05T22:35:46.402Z,-1.30
2023-03-05T22:38:15.001Z,-1.41
2023-03-05T22:40:45.224Z,-1.41
2023-03-05T22:43:13.753Z,-1.39
2023-03-05T22:45:41.815Z,-1.42
2023-03-05T22:48:10.633Z,-1.40
2023-03-05T22:50:38.953Z,-1.50
2023-03-05T22:53:06.863Z,-1.54
2023-03-05T22:55:34.855Z,-1.57
2023-03-05T22:58:04.306Z,-1.59
2023-03-05T23:00:32.316Z,-1.62
2023-03-05T23:03:00.459Z,-1.61
2023-03-05T23:05:28.504Z,-1.58
2023-03-05T23:07:56.350Z,-1.73
2023-03-05T23:10:26.912Z,-1.66
2023-03-05T23:12:55.882Z,-1.66
2023-03-05T23:15:26.145Z,-1.75
2023-03-05T23:17:54.716Z,-1.77
2023-03-05T23:20:23.833Z,-1.73
2023-03-05T23:22:52.978Z,-1.73
2023-03-05T23:25:21.610Z,-1.66
2023-03-05T23:27:49.779Z,-1.67
2023-03-05T23:30:19.852Z,-1.65
2023-03-05T23:32:51.544Z,-1.62
2023-03-05T23:35:20.815Z,-1.57
2023-03-05T23:37:48.978Z,-1.63
2023-03-05T23:40:18.751Z,-1.66
2023-03-05T23:42:46.869Z,-1.66
2023-03-05T23:45:16.113Z,-1.67
2023-03-05T23:47:44.071Z,-1.75
2023-03-05T23:50:16.032Z,-1.50
2023-03-05T23:52:44.193Z,-1.47
2023-03-05T23:55:15.824Z,-1.41
2023-03-05T23:57:44.088Z,-1.36
